createdAt,value
2023-02-14T00:00:29.084Z,7.21
2023-02-14T00:02:59.792Z,7.09
2023-02-14T00:05:31.029Z,6.92
2023-02-14T00:08:01.782Z,6.76
2023-02-14T00:10:32.445Z,6.67
2023-02-14T00:13:03.150Z,6.72
2023-02-14T00:15:33.825Z,6.78
2023-02-14T00:18:06.234Z,6.82
2023-02-14T00:20:37.084Z,6.80
2023-02-14T00:23:07.831Z,6.79
2023-02-14T00:25:38.642Z,6.72
2023-02-14T00:28:09.367Z,6.66
2023-02-14T00:30:40.103Z,6.68
2023-02-14T00:33:10.747Z,6.78
2023-02-14T00:35:42.061Z,6.86
2023-02-14T00:38:12.744Z,6.93
2023-02-14T00:40:43.676Z,6.96
2023-02-14T00:43:14.265Z,7.01
2023-02-14T00:45:44.941Z,7.08
2023-02-14T00:48:15.689Z,7.05
2023-02-14T00:50:47.256Z,6.96
2023-02-14T00:53:17.948Z,6.83
2023-02-14T00:55:49.175Z,6.70
2023-02-14T00:58:19.801Z,6.58
2023-02-14T01:00:51.634Z,6.45
2023-02-14T01:03:24.011Z,6.35
2023-02-14T01:05:55.553Z,6.32
2023-02-14T01:08:27.757Z,6.35
2023-02-14T01:10:58.630Z,6.39
2023-02-14T01:13:30.657Z,6.44
2023-02-14T01:16:06.509Z,6.48
2023-02-14T01:18:37.594Z,6.55
2023-02-14T01:21:18.003Z,6.65
2023-02-14T01:23:50.718Z,6.75
2023-02-14T01:26:24.389Z,6.87
2023-02-14T01:28:55.416Z,6.97
2023-02-14T01:31:29.171Z,7.05
2023-02-14T01:34:01.855Z,7.13
2023-02-14T01:36:34.802Z,7.20
2023-02-14T01:39:07.917Z,7.24
2023-02-14T01:41:41.446Z,7.31
2023-02-14T01:44:43.074Z,7.36
2023-02-14T01:47:15.162Z,7.45
2023-02-14T01:49:50.465Z,7.50
2023-02-14T01:52:25.008Z,7.45
2023-02-14T01:55:01.126Z,7.31
2023-02-14T01:57:38.565Z,7.16
2023-02-14T02:00:29.661Z,7.08
2023-02-14T02:03:00.497Z,7.04
2023-02-14T02:05:31.578Z,7.07
2023-02-14T02:08:03.302Z,7.12
2023-02-14T02:10:33.994Z,7.16
2023-02-14T02:13:07.398Z,7.20
2023-02-14T02:15:46.805Z,7.28
2023-02-14T02:18:27.206Z,7.29
2023-02-14T02:21:28.174Z,7.26
2023-02-14T02:24:23.331Z,7.24
2023-02-14T02:27:34.255Z,7.27
2023-02-14T02:30:35.623Z,7.31
2023-02-14T02:33:45.353Z,7.34
2023-02-14T02:36:56.260Z,7.33
2023-02-14T02:39:43.117Z,7.21
2023-02-14T02:42:25.872Z,7.18
2023-02-14T02:45:05.561Z,7.15
2023-02-14T02:47:44.000Z,7.14
2023-02-14T02:50:41.486Z,7.15
2023-02-14T02:53:19.809Z,7.19
2023-02-14T02:56:14.324Z,7.20
2023-02-14T02:58:47.800Z,7.21
2023-02-14T03:01:24.418Z,7.25
2023-02-14T03:04:18.894Z,7.29
2023-02-14T03:06:50.373Z,7.32
2023-02-14T03:09:59.852Z,7.26
2023-02-14T03:12:55.950Z,7.22
2023-02-14T03:15:37.574Z,7.23
2023-02-14T03:18:29.824Z,7.20
2023-02-14T03:21:15.616Z,7.11
2023-02-14T03:23:50.692Z,6.97
2023-02-14T03:26:27.712Z,6.84
2023-02-14T03:29:05.549Z,6.80
2023-02-14T03:31:41.982Z,6.85
2023-02-14T03:34:18.253Z,6.91
2023-02-14T03:36:53.652Z,6.93
2023-02-14T03:39:28.250Z,6.97
2023-02-14T03:42:06.082Z,6.97
2023-02-14T03:44:39.257Z,7.11
2023-02-14T03:47:13.340Z,7.15
2023-02-14T03:49:47.975Z,7.19
2023-02-14T03:52:21.041Z,7.24
2023-02-14T03:54:55.136Z,7.28
2023-02-14T03:57:29.819Z,7.29
2023-02-14T04:00:00.623Z,7.23
2023-02-14T04:02:36.056Z,7.10
2023-02-14T04:05:13.468Z,7.05
2023-02-14T04:07:52.207Z,7.01
2023-02-14T04:10:24.400Z,7.00
2023-02-14T04:12:55.221Z,7.02
2023-02-14T04:15:25.963Z,7.08
2023-02-14T04:18:14.570Z,7.10
2023-02-14T04:20:45.363Z,7.15
2023-02-14T04:23:16.231Z,7.18
2023-02-14T04:25:47.076Z,7.21
2023-02-14T04:28:17.993Z,7.23
2023-02-14T04:30:48.605Z,7.23
2023-02-14T04:33:19.456Z,7.11
2023-02-14T04:35:50.577Z,6.97
2023-02-14T04:38:21.310Z,6.94
2023-02-14T04:40:53.217Z,6.92
2023-02-14T04:43:23.933Z,6.92
2023-02-14T04:45:54.531Z,6.97
2023-02-14T04:48:25.135Z,6.96
2023-02-14T04:50:56.376Z,6.87
2023-02-14T04:53:27.018Z,6.82
2023-02-14T04:55:57.778Z,6.86
2023-02-14T04:58:28.604Z,6.89
2023-02-14T05:00:59.534Z,6.90
2023-02-14T05:03:30.542Z,6.94
2023-02-14T05:06:01.326Z,7.02
2023-02-14T05:08:32.034Z,7.07
2023-02-14T05:11:02.647Z,7.12
2023-02-14T05:13:33.407Z,7.16
2023-02-14T05:16:05.059Z,7.15
2023-02-14T05:18:35.696Z,7.17
2023-02-14T05:21:07.392Z,7.20
2023-02-14T05:23:38.246Z,7.19
2023-02-14T05:26:09.160Z,7.16
2023-02-14T05:28:41.086Z,7.16
2023-02-14T05:31:11.936Z,7.14
2023-02-14T05:33:42.868Z,7.17
2023-02-14T05:36:13.793Z,7.16
2023-02-14T05:38:44.427Z,7.13
2023-02-14T05:41:15.295Z,7.16
2023-02-14T05:43:45.918Z,7.14
2023-02-14T05:46:16.715Z,7.14
2023-02-14T05:48:47.428Z,7.16
2023-02-14T05:51:18.141Z,7.12
2023-02-14T05:53:48.798Z,7.10
2023-02-14T05:56:19.611Z,7.06
2023-02-14T05:58:50.217Z,7.07
2023-02-14T06:01:20.980Z,7.05
2023-02-14T06:03:51.788Z,7.00
2023-02-14T06:06:22.512Z,7.02
2023-02-14T06:08:53.250Z,7.07
2023-02-14T06:11:23.933Z,7.10
2023-02-14T06:13:54.708Z,7.06
2023-02-14T06:16:25.428Z,7.03
2023-02-14T06:18:56.251Z,7.03
2023-02-14T06:21:27.015Z,7.03
2023-02-14T06:23:57.718Z,7.05
2023-02-14T06:26:28.932Z,7.07
2023-02-14T06:29:00.748Z,7.03
2023-02-14T06:31:31.797Z,6.89
2023-02-14T06:34:02.554Z,6.86
2023-02-14T06:36:33.238Z,6.86
2023-02-14T06:39:04.044Z,6.90
2023-02-14T06:41:34.713Z,6.98
2023-02-14T06:44:05.599Z,7.12
2023-02-14T06:46:36.339Z,7.23
2023-02-14T06:49:07.116Z,7.35
2023-02-14T06:51:37.739Z,7.45
2023-02-14T06:54:08.838Z,7.54
2023-02-14T06:56:39.528Z,7.65
2023-02-14T06:59:10.211Z,7.88
2023-02-14T07:01:40.859Z,8.21
2023-02-14T07:04:11.840Z,8.20
2023-02-14T07:06:42.723Z,7.99
2023-02-14T07:09:16.868Z,7.79
2023-02-14T07:11:48.608Z,7.60
2023-02-14T07:14:19.428Z,7.43
2023-02-14T07:16:51.096Z,7.26
2023-02-14T07:19:21.850Z,7.11
2023-02-14T07:21:52.526Z,7.01
2023-02-14T07:24:23.286Z,6.91
2023-02-14T07:26:54.024Z,6.83
2023-02-14T07:29:24.802Z,6.76
2023-02-14T07:31:55.658Z,6.70
2023-02-14T07:34:27.356Z,6.67
2023-02-14T07:36:58.168Z,6.64
2023-02-14T07:39:29.109Z,6.63
2023-02-14T07:41:59.904Z,6.61
2023-02-14T07:44:30.743Z,6.58
2023-02-14T07:47:01.367Z,6.58
2023-02-14T07:49:32.130Z,6.56
2023-02-14T07:52:03.805Z,6.55
2023-02-14T07:54:34.521Z,6.55
2023-02-14T07:57:05.334Z,6.54
2023-02-14T07:59:36.379Z,6.54
2023-02-14T08:02:07.482Z,6.54
2023-02-14T08:04:38.385Z,6.53
2023-02-14T08:07:09.078Z,6.51
2023-02-14T08:09:39.861Z,6.48
2023-02-14T08:12:28.734Z,6.48
2023-02-14T08:15:19.652Z,6.48
2023-02-14T08:17:51.355Z,6.49
2023-02-14T08:20:22.354Z,6.53
2023-02-14T08:22:53.371Z,6.53
2023-02-14T08:25:24.397Z,6.52
2023-02-14T08:27:55.854Z,6.52
2023-02-14T08:30:27.406Z,6.52
2023-02-14T08:32:58.398Z,6.51
2023-02-14T08:35:29.194Z,6.48
2023-02-14T08:37:59.975Z,6.45
2023-02-14T08:40:31.160Z,6.45
2023-02-14T08:43:02.019Z,6.44
2023-02-14T08:45:32.799Z,6.42
2023-02-14T08:48:08.567Z,6.40
2023-02-14T08:50:40.683Z,6.39
2023-02-14T08:53:13.283Z,6.40
2023-02-14T08:55:44.294Z,6.39
2023-02-14T08:58:15.362Z,6.39
2023-02-14T09:00:46.173Z,6.40
2023-02-14T09:03:16.998Z,6.42
2023-02-14T09:05:47.866Z,6.43
2023-02-14T09:08:18.968Z,6.45
2023-02-14T09:10:49.745Z,6.47
2023-02-14T09:13:20.471Z,6.48
2023-02-14T09:15:51.549Z,6.48
2023-02-14T09:18:22.534Z,6.47
2023-02-14T09:20:53.345Z,6.47
2023-02-14T09:23:24.179Z,6.50
2023-02-14T09:26:00.583Z,6.54
2023-02-14T09:28:31.476Z,6.59
2023-02-14T09:31:12.430Z,6.62
2023-02-14T09:33:43.863Z,6.62
2023-02-14T09:36:14.634Z,6.64
2023-02-14T09:38:45.470Z,6.65
2023-02-14T09:41:44.671Z,6.64
2023-02-14T09:44:25.828Z,6.65
2023-02-14T09:47:00.548Z,6.68
2023-02-14T09:49:37.299Z,6.66
2023-02-14T09:52:15.657Z,6.63
2023-02-14T09:54:48.637Z,6.65
2023-02-14T09:57:29.003Z,6.68
2023-02-14T10:00:12.391Z,6.72
2023-02-14T10:02:50.339Z,6.74
2023-02-14T10:05:26.212Z,6.73
2023-02-14T10:08:08.590Z,6.75
2023-02-14T10:10:42.423Z,6.72
2023-02-14T10:13:19.400Z,6.72
2023-02-14T10:15:56.836Z,6.74
2023-02-14T10:18:32.377Z,6.77
2023-02-14T10:21:07.927Z,6.78
2023-02-14T10:23:42.851Z,6.78
2023-02-14T10:26:17.357Z,6.79
2023-02-14T10:28:50.152Z,6.82
2023-02-14T10:31:23.763Z,6.84
2023-02-14T10:33:58.137Z,6.87
2023-02-14T10:36:46.850Z,6.91
2023-02-14T10:39:40.732Z,6.94
2023-02-14T10:42:21.466Z,6.95
2023-02-14T10:45:02.700Z,6.93
2023-02-14T10:47:42.174Z,6.95
2023-02-14T10:50:20.407Z,6.95
2023-02-14T10:53:01.059Z,6.96
2023-02-14T10:55:45.383Z,6.96
2023-02-14T10:58:20.675Z,6.93
2023-02-14T11:01:00.888Z,6.92
2023-02-14T11:03:34.242Z,6.94
2023-02-14T11:06:05.320Z,6.91
2023-02-14T11:08:38.304Z,6.92
2023-02-14T11:11:18.208Z,6.94
2023-02-14T11:13:49.534Z,6.97
2023-02-14T11:16:32.948Z,7.01
2023-02-14T11:19:23.938Z,7.03
2023-02-14T11:21:54.586Z,7.04
2023-02-14T11:24:32.343Z,7.05
2023-02-14T11:27:05.701Z,7.08
2023-02-14T11:29:48.084Z,7.11
2023-02-14T11:32:24.019Z,7.13
2023-02-14T11:35:01.408Z,7.15
2023-02-14T11:37:37.365Z,7.17
2023-02-14T11:40:24.751Z,7.19
2023-02-14T11:43:12.776Z,7.17
2023-02-14T11:45:47.555Z,7.16
2023-02-14T11:48:39.352Z,7.14
2023-02-14T11:51:13.934Z,7.13
2023-02-14T11:53:50.192Z,7.13
2023-02-14T11:56:22.451Z,7.15
2023-02-14T11:58:57.605Z,7.10
2023-02-14T12:01:31.053Z,7.08
2023-02-14T12:04:04.258Z,7.05
2023-02-14T12:06:37.235Z,7.06
2023-02-14T12:09:13.490Z,7.09
2023-02-14T12:11:55.050Z,7.12
2023-02-14T12:14:29.289Z,7.11
2023-02-14T12:17:09.916Z,7.08
2023-02-14T12:19:48.008Z,7.09
2023-02-14T12:22:23.554Z,7.09
2023-02-14T12:25:02.938Z,7.12
2023-02-14T12:27:43.540Z,7.13
2023-02-14T12:30:18.267Z,7.15
2023-02-14T12:32:51.747Z,7.16
2023-02-14T12:35:35.885Z,7.15
2023-02-14T12:38:18.126Z,7.07
2023-02-14T12:41:02.923Z,7.06
2023-02-14T12:43:52.480Z,7.07
2023-02-14T12:46:41.901Z,7.02
2023-02-14T12:49:35.779Z,7.01
2023-02-14T12:52:22.874Z,6.98
2023-02-14T12:55:06.223Z,7.01
2023-02-14T12:57:47.122Z,7.02
2023-02-14T13:00:30.818Z,7.04
2023-02-14T13:03:17.530Z,7.03
2023-02-14T13:05:58.938Z,7.04
2023-02-14T13:08:48.514Z,7.05
2023-02-14T13:11:30.075Z,7.03
2023-02-14T13:14:14.042Z,7.05
2023-02-14T13:16:52.392Z,7.05
2023-02-14T13:19:38.012Z,7.08
2023-02-14T13:22:14.553Z,7.10
2023-02-14T13:24:48.724Z,7.09
2023-02-14T13:27:24.239Z,7.11
2023-02-14T13:29:59.257Z,7.14
2023-02-14T13:32:37.095Z,7.17
2023-02-14T13:35:09.365Z,7.14
2023-02-14T13:37:40.734Z,7.03
2023-02-14T13:40:21.932Z,6.97
2023-02-14T13:42:58.403Z,6.95
2023-02-14T13:45:56.719Z,6.95
2023-02-14T13:48:29.823Z,6.96
2023-02-14T13:51:03.204Z,6.94
2023-02-14T13:53:46.166Z,6.95
2023-02-14T13:56:36.343Z,6.97
2023-02-14T13:59:07.823Z,7.02
2023-02-14T14:01:42.260Z,7.03
2023-02-14T14:04:37.990Z,7.04
2023-02-14T14:07:27.162Z,7.02
2023-02-14T14:10:12.396Z,7.04
2023-02-14T14:12:44.677Z,7.03
2023-02-14T14:15:24.342Z,7.01
2023-02-14T14:18:30.105Z,7.01
2023-02-14T14:21:15.697Z,7.02
2023-02-14T14:23:46.658Z,7.02
2023-02-14T14:26:38.289Z,7.06
2023-02-14T14:29:19.257Z,7.10
2023-02-14T14:31:55.700Z,7.11
2023-02-14T14:34:29.399Z,7.09
2023-02-14T14:37:07.854Z,7.09
2023-02-14T14:39:39.901Z,7.07
2023-02-14T14:42:14.894Z,7.08
2023-02-14T14:44:52.790Z,7.09
2023-02-14T14:47:26.213Z,7.09
2023-02-14T14:50:06.028Z,7.06
2023-02-14T14:52:42.528Z,7.03
2023-02-14T14:55:24.510Z,7.03
2023-02-14T14:57:57.332Z,7.05
2023-02-14T15:00:30.661Z,7.07
2023-02-14T15:03:05.798Z,7.06
2023-02-14T15:05:39.571Z,7.06
2023-02-14T15:08:32.172Z,7.06
2023-02-14T15:11:07.726Z,7.08
2023-02-14T15:13:53.844Z,7.11
2023-02-14T15:16:29.118Z,7.10
2023-02-14T15:19:07.569Z,7.06
2023-02-14T15:21:43.526Z,7.04
2023-02-14T15:24:19.456Z,7.02
2023-02-14T15:26:53.508Z,6.97
2023-02-14T15:29:27.148Z,6.86
2023-02-14T15:32:05.034Z,6.83
2023-02-14T15:34:38.091Z,6.80
2023-02-14T15:37:12.420Z,6.79
2023-02-14T15:39:47.811Z,6.77
2023-02-14T15:42:29.258Z,6.76
2023-02-14T15:45:23.745Z,6.70
2023-02-14T15:47:56.647Z,6.67
2023-02-14T15:50:27.784Z,6.65
2023-02-14T15:53:08.641Z,6.62
2023-02-14T15:55:39.644Z,6.59
2023-02-14T15:58:20.349Z,6.58
2023-02-14T16:00:53.567Z,6.58
2023-02-14T16:03:27.333Z,6.57
2023-02-14T16:05:58.579Z,6.56
2023-02-14T16:08:34.212Z,6.54
2023-02-14T16:11:08.909Z,6.51
2023-02-14T16:13:42.042Z,6.45
2023-02-14T16:16:14.602Z,6.40
2023-02-14T16:18:48.127Z,6.35
2023-02-14T16:21:28.429Z,6.30
2023-02-14T16:24:23.470Z,6.27
2023-02-14T16:26:54.457Z,6.24
2023-02-14T16:29:25.268Z,6.22
2023-02-14T16:32:15.566Z,6.18
2023-02-14T16:34:48.455Z,6.12
2023-02-14T16:37:26.304Z,6.05
2023-02-14T16:40:01.463Z,5.97
2023-02-14T16:42:37.303Z,5.91
2023-02-14T16:45:15.241Z,5.86
2023-02-14T16:47:47.170Z,5.83
2023-02-14T16:50:20.572Z,5.82
2023-02-14T16:52:55.868Z,5.74
2023-02-14T16:55:29.996Z,5.75
2023-02-14T16:58:03.932Z,5.73
2023-02-14T17:00:34.563Z,5.68
2023-02-14T17:03:11.732Z,5.65
2023-02-14T17:05:43.457Z,5.57
2023-02-14T17:08:16.235Z,5.56
2023-02-14T17:10:49.976Z,5.50
2023-02-14T17:13:25.410Z,5.45
2023-02-14T17:16:01.920Z,5.36
2023-02-14T17:18:35.035Z,5.31
2023-02-14T17:21:05.561Z,5.25
2023-02-14T17:23:36.763Z,5.20
2023-02-14T17:26:08.063Z,5.17
2023-02-14T17:28:39.384Z,5.14
2023-02-14T17:31:10.282Z,5.10
2023-02-14T17:33:41.225Z,5.07
2023-02-14T17:36:13.555Z,5.02
2023-02-14T17:38:44.966Z,4.97
2023-02-14T17:41:18.675Z,4.92
2023-02-14T17:43:49.619Z,4.89
2023-02-14T17:46:20.436Z,4.87
2023-02-14T17:48:51.538Z,4.83
2023-02-14T17:51:22.313Z,4.78
2023-02-14T17:53:53.112Z,4.73
2023-02-14T17:56:26.057Z,4.68
2023-02-14T17:58:57.554Z,4.60
2023-02-14T18:01:33.009Z,4.48
2023-02-14T18:04:05.713Z,4.35
2023-02-14T18:06:37.363Z,4.24
2023-02-14T18:09:08.848Z,4.17
2023-02-14T18:11:44.312Z,4.10
2023-02-14T18:14:15.338Z,4.02
2023-02-14T18:16:56.122Z,3.95
2023-02-14T18:19:29.988Z,3.89
2023-02-14T18:22:15.115Z,3.82
2023-02-14T18:24:44.333Z,3.79
2023-02-14T18:27:16.197Z,3.78
2023-02-14T18:29:46.938Z,3.79
2023-02-14T18:32:17.634Z,3.78
2023-02-14T18:34:48.701Z,3.80
2023-02-14T18:37:19.819Z,3.81
2023-02-14T18:39:50.564Z,3.75
2023-02-14T18:42:21.757Z,3.67
2023-02-14T18:44:52.477Z,3.61
2023-02-14T18:47:23.222Z,3.54
2023-02-14T18:49:54.018Z,3.45
2023-02-14T18:52:25.414Z,3.41
2023-02-14T18:54:58.537Z,3.40
2023-02-14T18:57:29.411Z,3.39
2023-02-14T19:00:00.541Z,3.37
2023-02-14T19:02:31.410Z,3.36
2023-02-14T19:05:02.091Z,3.35
2023-02-14T19:07:33.044Z,3.30
2023-02-14T19:10:06.094Z,3.24
2023-02-14T19:12:35.500Z,3.19
2023-02-14T19:15:06.928Z,3.16
2023-02-14T19:17:38.358Z,3.12
2023-02-14T19:20:11.175Z,3.07
2023-02-14T19:22:42.268Z,3.04
2023-02-14T19:25:13.613Z,2.98
2023-02-14T19:27:44.369Z,2.92
2023-02-14T19:30:16.137Z,2.88
2023-02-14T19:32:46.923Z,2.86
2023-02-14T19:35:17.620Z,2.84
2023-02-14T19:37:48.863Z,2.82
2023-02-14T19:40:20.537Z,2.81
2023-02-14T19:42:51.178Z,2.80
2023-02-14T19:45:22.025Z,2.80
2023-02-14T19:47:53.099Z,2.77
2023-02-14T19:50:24.006Z,2.75
2023-02-14T19:52:55.098Z,2.71
2023-02-14T19:55:27.608Z,2.70
2023-02-14T19:57:58.893Z,2.70
2023-02-14T20:00:29.776Z,2.68
2023-02-14T20:03:04.137Z,2.66
2023-02-14T20:05:38.071Z,2.64
2023-02-14T20:08:08.999Z,2.62
2023-02-14T20:10:39.641Z,2.58
2023-02-14T20:13:10.566Z,2.56
2023-02-14T20:15:41.615Z,2.56
2023-02-14T20:18:12.323Z,2.54
2023-02-14T20:21:03.616Z,2.54
2023-02-14T20:23:34.925Z,2.56
2023-02-14T20:26:05.632Z,2.57
2023-02-14T20:28:36.555Z,2.52
2023-02-14T20:31:11.160Z,2.43
2023-02-14T20:33:42.420Z,2.33
2023-02-14T20:36:13.192Z,2.25
2023-02-14T20:38:43.987Z,2.17
2023-02-14T20:41:17.103Z,2.14
2023-02-14T20:43:46.252Z,2.12
2023-02-14T20:46:17.221Z,2.09
2023-02-14T20:48:48.255Z,2.06
2023-02-14T20:51:20.561Z,2.07
2023-02-14T20:53:51.403Z,2.04
2023-02-14T20:56:22.817Z,2.07
2023-02-14T20:58:53.683Z,2.06
2023-02-14T21:01:26.291Z,2.08
2023-02-14T21:03:57.139Z,2.08
2023-02-14T21:06:31.030Z,2.06
2023-02-14T21:09:02.622Z,2.01
2023-02-14T21:11:33.330Z,1.95
2023-02-14T21:14:04.963Z,1.93
2023-02-14T21:16:35.653Z,1.93
2023-02-14T21:19:06.770Z,1.90
2023-02-14T21:21:38.940Z,1.86
2023-02-14T21:24:12.797Z,1.84
2023-02-14T21:26:44.170Z,1.81
2023-02-14T21:29:15.367Z,1.81
2023-02-14T21:31:46.311Z,1.82
2023-02-14T21:34:18.325Z,1.84
2023-02-14T21:36:49.154Z,1.83
2023-02-14T21:39:20.911Z,1.79
2023-02-14T21:41:51.650Z,1.76
2023-02-14T21:44:36.276Z,1.76
2023-02-14T21:47:07.170Z,1.76
2023-02-14T21:49:55.984Z,1.74
2023-02-14T21:52:26.873Z,1.67
2023-02-14T21:54:57.754Z,1.62
2023-02-14T21:57:28.620Z,1.60
2023-02-14T21:59:59.228Z,1.60
2023-02-14T22:02:30.079Z,1.60
2023-02-14T22:05:01.579Z,1.59
2023-02-14T22:07:32.258Z,1.58
2023-02-14T22:10:03.288Z,1.58
2023-02-14T22:12:34.149Z,1.56
2023-02-14T22:15:05.380Z,1.53
2023-02-14T22:17:37.758Z,1.51
2023-02-14T22:20:11.267Z,1.49
2023-02-14T22:22:41.922Z,1.46
2023-02-14T22:25:12.636Z,1.43
2023-02-14T22:27:43.338Z,1.39
2023-02-14T22:30:14.983Z,1.34
2023-02-14T22:32:45.863Z,1.27
2023-02-14T22:35:16.870Z,1.19
2023-02-14T22:37:47.991Z,1.19
2023-02-14T22:40:19.277Z,1.19
2023-02-14T22:42:49.875Z,1.20
2023-02-14T22:45:20.795Z,1.20
2023-02-14T22:47:51.601Z,1.19
2023-02-14T22:50:22.610Z,1.18
2023-02-14T22:52:53.263Z,1.18
2023-02-14T22:55:23.948Z,1.17
2023-02-14T22:57:54.648Z,1.17
2023-02-14T23:00:26.039Z,1.15
2023-02-14T23:02:56.875Z,1.15
2023-02-14T23:05:28.101Z,1.12
2023-02-14T23:07:58.922Z,1.11
2023-02-14T23:10:29.742Z,1.08
2023-02-14T23:13:18.443Z,1.05
2023-02-14T23:16:06.868Z,1.04
2023-02-14T23:19:03.426Z,1.31
2023-02-14T23:21:51.621Z,1.68
2023-02-14T23:24:22.654Z,1.96
2023-02-14T23:26:54.785Z,2.15
2023-02-14T23:29:25.786Z,2.39
2023-02-14T23:31:56.720Z,2.66
2023-02-14T23:34:30.378Z,2.89
2023-02-14T23:37:01.299Z,3.10
2023-02-14T23:39:35.776Z,3.20
2023-02-14T23:42:07.587Z,3.26
2023-02-14T23:44:38.642Z,3.26
2023-02-14T23:47:10.676Z,3.32
2023-02-14T23:49:42.928Z,3.41
2023-02-14T23:52:15.203Z,3.47
2023-02-14T23:54:46.044Z,3.40
2023-02-14T23:57:16.690Z,3.31
2023-02-14T23:59:47.368Z,3.30
